Startpagina
METAR-TAF:

METAR-TAF

Vliegvelden :

Luchthaven Kaunas

Kaunas, Litouwen

breedte: 54-54N, lengte: 023-55-12E, hoogte: 77 m

Actueel weer

Dit bericht is 28 minuten geleden gemaakt, om 19:20 UTC
Wind 2 kt uit variabele richting
Temperatuur 13°C
Vochtigheid 77%
Druk 1022 hPa
Zicht 10 km of meer
geen wolken onder 1500 m en geen cumulonimbus

METAR: EYKA 191920Z VRB02KT CAVOK 13/09 Q1022

Tijdstip: 22:48 (19:48 UTC)

Verwachting

Dit bericht is 2 uur en het 40 minuten geleden gemaakt, om 17:08 UTC
Verwachting geldig van 19 om 18 UTC tot 20 om 18 UTC
Wind 4 kt uit variabele richting
Zicht: 6000 m
Tijdelijke
van 19 om 21 UTC tot 20 om 06 UTC
Zicht: 0600 m
op 200 ft
mist
Tijdelijke
van 20 om 06 UTC tot 20 om 08 UTC
Gebroken wolken op 500 ft

TAF: EYKA 191708Z 1918/2018 VRB04KT 6000 NSC TEMPO 1921/2006 0600 FG VV002 TEMPO 2006/2008 BKN005

Waarnemingen en weersverwachtingen van meer dan 4000 vliegvelden (METAR en TAF).

De beschikbare stations zijn de gele en rode punten op de kaart.

Ga met uw muis naar het station om de naam te zien.

Klik dan om waarnemingen en weersverwachtingen te zien.

kaart wijzigen: klik op de groene knoppen met een zwart kruis om in te zoomen, op de groene knop met een streepje om uit te zoomen of op de groene pijlen voor aangrenzende kaarten.


METAR-TAF: